sensor_id;sensor_type;location;lat;lon;timestamp;P1;durP1;ratioP1;P2;durP2;ratioP2
12846;SDS011;6492;48.128;8.320;2023-02-15T00:00:37;1.10;;;1.00;;
12846;SDS011;6492;48.128;8.320;2023-02-15T00:04:38;1.00;;;1.00;;
12846;SDS011;6492;48.128;8.320;2023-02-15T00:08:50;1.00;;;1.00;;
12846;SDS011;6492;48.128;8.320;2023-02-15T00:12:53;1.30;;;1.20;;
12846;SDS011;6492;48.128;8.320;2023-02-15T00:16:54;1.00;;;0.90;;
12846;SDS011;6492;48.128;8.320;2023-02-15T00:21:03;1.20;;;1.13;;
12846;SDS011;6492;48.128;8.320;2023-02-15T00:25:06;1.20;;;1.10;;
12846;SDS011;6492;48.128;8.320;2023-02-15T00:29:11;1.43;;;1.10;;
12846;SDS011;6492;48.128;8.320;2023-02-15T00:33:13;2.10;;;1.20;;
12846;SDS011;6492;48.128;8.320;2023-02-15T00:37:15;1.10;;;1.00;;
12846;SDS011;6492;48.128;8.320;2023-02-15T00:41:17;1.10;;;0.90;;
12846;SDS011;6492;48.128;8.320;2023-02-15T00:45:20;1.27;;;1.17;;
12846;SDS011;6492;48.128;8.320;2023-02-15T00:49:21;1.30;;;1.20;;
12846;SDS011;6492;48.128;8.320;2023-02-15T00:53:23;1.57;;;1.10;;
12846;SDS011;6492;48.128;8.320;2023-02-15T00:57:26;0.93;;;0.83;;
12846;SDS011;6492;48.128;8.320;2023-02-15T01:01:29;1.03;;;0.90;;
12846;SDS011;6492;48.128;8.320;2023-02-15T01:05:31;1.30;;;1.20;;
12846;SDS011;6492;48.128;8.320;2023-02-15T01:09:33;2.30;;;1.53;;
12846;SDS011;6492;48.128;8.320;2023-02-15T01:13:35;1.20;;;1.10;;
12846;SDS011;6492;48.128;8.320;2023-02-15T01:17:38;1.80;;;0.90;;
12846;SDS011;6492;48.128;8.320;2023-02-15T01:21:41;1.40;;;1.10;;
12846;SDS011;6492;48.128;8.320;2023-02-15T01:25:43;2.60;;;1.00;;
12846;SDS011;6492;48.128;8.320;2023-02-15T01:29:45;1.17;;;0.87;;
12846;SDS011;6492;48.128;8.320;2023-02-15T01:33:48;0.70;;;0.70;;
12846;SDS011;6492;48.128;8.320;2023-02-15T01:37:50;1.27;;;1.00;;
12846;SDS011;6492;48.128;8.320;2023-02-15T01:41:52;0.97;;;0.93;;
12846;SDS011;6492;48.128;8.320;2023-02-15T01:45:54;0.90;;;0.90;;
12846;SDS011;6492;48.128;8.320;2023-02-15T01:50:00;0.73;;;0.70;;
12846;SDS011;6492;48.128;8.320;2023-02-15T01:54:07;1.10;;;1.00;;
12846;SDS011;6492;48.128;8.320;2023-02-15T01:58:12;1.10;;;1.00;;
12846;SDS011;6492;48.128;8.320;2023-02-15T02:02:15;1.70;;;1.00;;
12846;SDS011;6492;48.128;8.320;2023-02-15T02:06:22;1.17;;;0.80;;
12846;SDS011;6492;48.128;8.320;2023-02-15T02:10:24;0.90;;;0.90;;
12846;SDS011;6492;48.128;8.320;2023-02-15T02:14:26;0.90;;;0.70;;
12846;SDS011;6492;48.128;8.320;2023-02-15T02:18:33;1.03;;;0.97;;
12846;SDS011;6492;48.128;8.320;2023-02-15T02:22:48;1.80;;;0.83;;
12846;SDS011;6492;48.128;8.320;2023-02-15T02:27:22;0.90;;;0.77;;
12846;SDS011;6492;48.128;8.320;2023-02-15T02:31:39;0.70;;;0.70;;
12846;SDS011;6492;48.128;8.320;2023-02-15T02:35:59;1.00;;;0.83;;
12846;SDS011;6492;48.128;8.320;2023-02-15T02:40:10;1.70;;;0.87;;
12846;SDS011;6492;48.128;8.320;2023-02-15T02:44:18;0.90;;;0.80;;
12846;SDS011;6492;48.128;8.320;2023-02-15T02:48:25;0.90;;;0.63;;
12846;SDS011;6492;48.128;8.320;2023-02-15T02:52:38;1.27;;;0.90;;
12846;SDS011;6492;48.128;8.320;2023-02-15T02:56:43;1.00;;;0.90;;
12846;SDS011;6492;48.128;8.320;2023-02-15T03:00:49;0.90;;;0.67;;
12846;SDS011;6492;48.128;8.320;2023-02-15T03:04:55;0.70;;;0.70;;
12846;SDS011;6492;48.128;8.320;2023-02-15T03:09:06;0.90;;;0.90;;
12846;SDS011;6492;48.128;8.320;2023-02-15T03:13:14;1.03;;;0.93;;
12846;SDS011;6492;48.128;8.320;2023-02-15T03:17:16;1.57;;;0.87;;
12846;SDS011;6492;48.128;8.320;2023-02-15T03:21:20;1.83;;;0.97;;
12846;SDS011;6492;48.128;8.320;2023-02-15T03:25:30;0.80;;;0.80;;
12846;SDS011;6492;48.128;8.320;2023-02-15T03:29:34;0.67;;;0.60;;
12846;SDS011;6492;48.128;8.320;2023-02-15T03:33:37;3.33;;;0.80;;
12846;SDS011;6492;48.128;8.320;2023-02-15T03:37:46;1.27;;;1.00;;
12846;SDS011;6492;48.128;8.320;2023-02-15T03:41:56;0.93;;;0.90;;
12846;SDS011;6492;48.128;8.320;2023-02-15T03:46:06;2.00;;;0.97;;
12846;SDS011;6492;48.128;8.320;2023-02-15T03:50:13;1.23;;;1.10;;
12846;SDS011;6492;48.128;8.320;2023-02-15T03:54:36;1.20;;;1.10;;
12846;SDS011;6492;48.128;8.320;2023-02-15T03:58:44;1.20;;;0.90;;
12846;SDS011;6492;48.128;8.320;2023-02-15T04:03:09;1.07;;;0.97;;
12846;SDS011;6492;48.128;8.320;2023-02-15T04:07:23;1.13;;;0.97;;
12846;SDS011;6492;48.128;8.320;2023-02-15T04:11:24;0.80;;;0.80;;
12846;SDS011;6492;48.128;8.320;2023-02-15T04:15:27;2.23;;;0.90;;
12846;SDS011;6492;48.128;8.320;2023-02-15T04:19:47;1.33;;;1.00;;
12846;SDS011;6492;48.128;8.320;2023-02-15T04:24:06;0.73;;;0.73;;
12846;SDS011;6492;48.128;8.320;2023-02-15T04:28:27;1.30;;;1.20;;
12846;SDS011;6492;48.128;8.320;2023-02-15T04:32:30;1.20;;;1.07;;
12846;SDS011;6492;48.128;8.320;2023-02-15T04:36:31;0.90;;;0.80;;
12846;SDS011;6492;48.128;8.320;2023-02-15T04:40:33;1.10;;;1.00;;
12846;SDS011;6492;48.128;8.320;2023-02-15T04:44:35;2.00;;;0.90;;
12846;SDS011;6492;48.128;8.320;2023-02-15T04:48:38;0.80;;;0.80;;
12846;SDS011;6492;48.128;8.320;2023-02-15T04:52:40;0.80;;;0.80;;
12846;SDS011;6492;48.128;8.320;2023-02-15T04:56:41;1.10;;;0.97;;
12846;SDS011;6492;48.128;8.320;2023-02-15T05:00:43;1.13;;;1.00;;
12846;SDS011;6492;48.128;8.320;2023-02-15T05:04:46;1.53;;;1.00;;
12846;SDS011;6492;48.128;8.320;2023-02-15T05:13:02;1.03;;;1.03;;
12846;SDS011;6492;48.128;8.320;2023-02-15T05:17:04;1.23;;;1.10;;
12846;SDS011;6492;48.128;8.320;2023-02-15T05:21:07;0.87;;;0.80;;
12846;SDS011;6492;48.128;8.320;2023-02-15T05:25:09;0.70;;;0.70;;
12846;SDS011;6492;48.128;8.320;2023-02-15T05:29:28;1.03;;;0.93;;
12846;SDS011;6492;48.128;8.320;2023-02-15T05:33:30;2.37;;;1.20;;
12846;SDS011;6492;48.128;8.320;2023-02-15T05:37:42;0.90;;;0.90;;
12846;SDS011;6492;48.128;8.320;2023-02-15T05:41:44;2.33;;;1.10;;
12846;SDS011;6492;48.128;8.320;2023-02-15T05:45:46;0.83;;;0.77;;
12846;SDS011;6492;48.128;8.320;2023-02-15T05:49:49;1.53;;;0.80;;
12846;SDS011;6492;48.128;8.320;2023-02-15T05:53:52;0.73;;;0.73;;
12846;SDS011;6492;48.128;8.320;2023-02-15T05:57:54;0.80;;;0.80;;
12846;SDS011;6492;48.128;8.320;2023-02-15T06:01:55;2.17;;;0.97;;
12846;SDS011;6492;48.128;8.320;2023-02-15T06:05:57;0.77;;;0.73;;
12846;SDS011;6492;48.128;8.320;2023-02-15T06:10:00;4.17;;;0.67;;
12846;SDS011;6492;48.128;8.320;2023-02-15T06:14:02;0.77;;;0.60;;
12846;SDS011;6492;48.128;8.320;2023-02-15T06:18:04;0.73;;;0.73;;
12846;SDS011;6492;48.128;8.320;2023-02-15T06:22:05;1.17;;;0.83;;
12846;SDS011;6492;48.128;8.320;2023-02-15T06:26:09;2.30;;;0.80;;
12846;SDS011;6492;48.128;8.320;2023-02-15T06:30:11;1.97;;;0.90;;
12846;SDS011;6492;48.128;8.320;2023-02-15T06:34:13;2.00;;;0.70;;
12846;SDS011;6492;48.128;8.320;2023-02-15T06:38:15;1.50;;;0.93;;
12846;SDS011;6492;48.128;8.320;2023-02-15T06:42:19;0.80;;;0.70;;
12846;SDS011;6492;48.128;8.320;2023-02-15T06:46:20;0.80;;;0.60;;
12846;SDS011;6492;48.128;8.320;2023-02-15T06:50:22;1.43;;;0.90;;
12846;SDS011;6492;48.128;8.320;2023-02-15T06:54:24;1.17;;;0.70;;
12846;SDS011;6492;48.128;8.320;2023-02-15T06:58:27;0.60;;;0.57;;
12846;SDS011;6492;48.128;8.320;2023-02-15T07:02:30;1.80;;;0.70;;
12846;SDS011;6492;48.128;8.320;2023-02-15T07:06:32;29.73;;;17.77;;
12846;SDS011;6492;48.128;8.320;2023-02-15T07:10:34;14.23;;;9.00;;
12846;SDS011;6492;48.128;8.320;2023-02-15T07:14:37;8.27;;;4.00;;
12846;SDS011;6492;48.128;8.320;2023-02-15T07:18:40;6.07;;;3.73;;
12846;SDS011;6492;48.128;8.320;2023-02-15T07:22:42;3.90;;;3.57;;
12846;SDS011;6492;48.128;8.320;2023-02-15T07:26:44;1.23;;;1.10;;
12846;SDS011;6492;48.128;8.320;2023-02-15T07:30:47;2.53;;;1.63;;
12846;SDS011;6492;48.128;8.320;2023-02-15T07:34:49;1.80;;;1.70;;
12846;SDS011;6492;48.128;8.320;2023-02-15T07:38:50;2.97;;;1.80;;
12846;SDS011;6492;48.128;8.320;2023-02-15T07:42:52;3.73;;;2.30;;
12846;SDS011;6492;48.128;8.320;2023-02-15T07:46:56;4.90;;;2.50;;
12846;SDS011;6492;48.128;8.320;2023-02-15T07:50:58;4.23;;;2.10;;
12846;SDS011;6492;48.128;8.320;2023-02-15T07:55:00;2.07;;;1.63;;
12846;SDS011;6492;48.128;8.320;2023-02-15T07:59:01;1.50;;;1.40;;
12846;SDS011;6492;48.128;8.320;2023-02-15T08:03:06;1.70;;;1.13;;
12846;SDS011;6492;48.128;8.320;2023-02-15T08:07:14;1.60;;;1.50;;
12846;SDS011;6492;48.128;8.320;2023-02-15T08:11:16;1.53;;;1.43;;
12846;SDS011;6492;48.128;8.320;2023-02-15T08:15:26;2.13;;;1.60;;
12846;SDS011;6492;48.128;8.320;2023-02-15T08:19:30;2.33;;;2.13;;
12846;SDS011;6492;48.128;8.320;2023-02-15T08:23:34;3.27;;;1.80;;
12846;SDS011;6492;48.128;8.320;2023-02-15T08:27:36;3.53;;;2.00;;
12846;SDS011;6492;48.128;8.320;2023-02-15T08:31:38;7.80;;;5.30;;
12846;SDS011;6492;48.128;8.320;2023-02-15T08:35:50;6.20;;;3.40;;
12846;SDS011;6492;48.128;8.320;2023-02-15T08:39:52;3.50;;;2.07;;
12846;SDS011;6492;48.128;8.320;2023-02-15T08:43:54;4.37;;;1.87;;
12846;SDS011;6492;48.128;8.320;2023-02-15T08:47:57;3.97;;;2.30;;
12846;SDS011;6492;48.128;8.320;2023-02-15T08:52:00;2.80;;;1.80;;
12846;SDS011;6492;48.128;8.320;2023-02-15T08:56:02;3.53;;;2.30;;
12846;SDS011;6492;48.128;8.320;2023-02-15T09:00:05;7.90;;;5.37;;
12846;SDS011;6492;48.128;8.320;2023-02-15T09:04:08;5.70;;;3.47;;
12846;SDS011;6492;48.128;8.320;2023-02-15T09:08:12;3.23;;;2.20;;
12846;SDS011;6492;48.128;8.320;2023-02-15T09:12:13;6.07;;;2.63;;
12846;SDS011;6492;48.128;8.320;2023-02-15T09:16:15;2.07;;;1.50;;
12846;SDS011;6492;48.128;8.320;2023-02-15T09:20:17;3.43;;;1.70;;
12846;SDS011;6492;48.128;8.320;2023-02-15T09:24:21;3.40;;;1.87;;
12846;SDS011;6492;48.128;8.320;2023-02-15T09:28:22;3.93;;;1.60;;
12846;SDS011;6492;48.128;8.320;2023-02-15T09:32:24;2.23;;;1.80;;
12846;SDS011;6492;48.128;8.320;2023-02-15T09:36:27;3.93;;;2.80;;
12846;SDS011;6492;48.128;8.320;2023-02-15T09:40:33;2.30;;;1.73;;
12846;SDS011;6492;48.128;8.320;2023-02-15T09:44:48;2.57;;;1.40;;
12846;SDS011;6492;48.128;8.320;2023-02-15T09:49:13;2.70;;;1.60;;
12846;SDS011;6492;48.128;8.320;2023-02-15T09:53:27;1.30;;;1.17;;
12846;SDS011;6492;48.128;8.320;2023-02-15T09:57:46;2.93;;;1.40;;
12846;SDS011;6492;48.128;8.320;2023-02-15T10:01:56;1.47;;;1.30;;
12846;SDS011;6492;48.128;8.320;2023-02-15T10:06:28;1.20;;;1.00;;
12846;SDS011;6492;48.128;8.320;2023-02-15T10:10:43;1.77;;;0.90;;
12846;SDS011;6492;48.128;8.320;2023-02-15T10:19:27;2.60;;;1.23;;
12846;SDS011;6492;48.128;8.320;2023-02-15T10:23:47;2.40;;;1.43;;
12846;SDS011;6492;48.128;8.320;2023-02-15T10:28:03;1.80;;;1.33;;
12846;SDS011;6492;48.128;8.320;2023-02-15T10:32:13;2.03;;;1.23;;
12846;SDS011;6492;48.128;8.320;2023-02-15T10:36:26;1.73;;;1.40;;
12846;SDS011;6492;48.128;8.320;2023-02-15T10:40:40;1.73;;;1.50;;
12846;SDS011;6492;48.128;8.320;2023-02-15T10:44:54;1.50;;;1.10;;
12846;SDS011;6492;48.128;8.320;2023-02-15T10:49:11;2.17;;;1.52;;
12846;SDS011;6492;48.128;8.320;2023-02-15T10:53:45;3.50;;;2.50;;
12846;SDS011;6492;48.128;8.320;2023-02-15T10:57:59;2.28;;;2.05;;
12846;SDS011;6492;48.128;8.320;2023-02-15T11:02:10;2.53;;;1.63;;
12846;SDS011;6492;48.128;8.320;2023-02-15T11:06:23;1.50;;;1.40;;
12846;SDS011;6492;48.128;8.320;2023-02-15T11:10:29;1.50;;;1.40;;
12846;SDS011;6492;48.128;8.320;2023-02-15T11:14:35;1.40;;;1.30;;
12846;SDS011;6492;48.128;8.320;2023-02-15T11:18:43;1.60;;;1.50;;
12846;SDS011;6492;48.128;8.320;2023-02-15T11:22:49;2.97;;;1.58;;
12846;SDS011;6492;48.128;8.320;2023-02-15T11:26:54;1.75;;;1.50;;
12846;SDS011;6492;48.128;8.320;2023-02-15T11:30:58;1.52;;;1.20;;
12846;SDS011;6492;48.128;8.320;2023-02-15T11:35:03;1.45;;;1.35;;
12846;SDS011;6492;48.128;8.320;2023-02-15T11:39:20;1.85;;;1.50;;
12846;SDS011;6492;48.128;8.320;2023-02-15T11:43:26;1.67;;;1.45;;
12846;SDS011;6492;48.128;8.320;2023-02-15T11:47:34;1.73;;;1.50;;
12846;SDS011;6492;48.128;8.320;2023-02-15T11:51:35;1.70;;;1.60;;
12846;SDS011;6492;48.128;8.320;2023-02-15T11:55:39;2.65;;;1.60;;
12846;SDS011;6492;48.128;8.320;2023-02-15T11:59:43;2.30;;;1.90;;
12846;SDS011;6492;48.128;8.320;2023-02-15T12:03:50;1.67;;;1.55;;
12846;SDS011;6492;48.128;8.320;2023-02-15T12:07:54;2.78;;;1.80;;
12846;SDS011;6492;48.128;8.320;2023-02-15T12:16:23;1.67;;;1.48;;
12846;SDS011;6492;48.128;8.320;2023-02-15T12:20:28;2.25;;;1.52;;
12846;SDS011;6492;48.128;8.320;2023-02-15T12:24:32;2.05;;;1.63;;
12846;SDS011;6492;48.128;8.320;2023-02-15T12:28:39;1.52;;;1.30;;
12846;SDS011;6492;48.128;8.320;2023-02-15T12:32:46;1.73;;;1.50;;
12846;SDS011;6492;48.128;8.320;2023-02-15T12:36:51;2.10;;;1.90;;
12846;SDS011;6492;48.128;8.320;2023-02-15T12:40:58;1.83;;;1.60;;
12846;SDS011;6492;48.128;8.320;2023-02-15T12:45:03;1.90;;;1.70;;
12846;SDS011;6492;48.128;8.320;2023-02-15T12:49:24;1.98;;;1.80;;
12846;SDS011;6492;48.128;8.320;2023-02-15T12:53:30;1.95;;;1.70;;
12846;SDS011;6492;48.128;8.320;2023-02-15T12:57:33;1.60;;;1.48;;
12846;SDS011;6492;48.128;8.320;2023-02-15T13:01:36;3.92;;;1.73;;
12846;SDS011;6492;48.128;8.320;2023-02-15T13:05:38;3.05;;;1.92;;
12846;SDS011;6492;48.128;8.320;2023-02-15T13:09:43;2.25;;;1.58;;
12846;SDS011;6492;48.128;8.320;2023-02-15T13:13:47;1.77;;;1.67;;
12846;SDS011;6492;48.128;8.320;2023-02-15T13:17:56;1.52;;;1.42;;
12846;SDS011;6492;48.128;8.320;2023-02-15T13:22:00;1.90;;;1.60;;
12846;SDS011;6492;48.128;8.320;2023-02-15T13:26:08;1.60;;;1.50;;
12846;SDS011;6492;48.128;8.320;2023-02-15T13:30:18;1.75;;;1.50;;
12846;SDS011;6492;48.128;8.320;2023-02-15T13:34:28;1.70;;;1.60;;
12846;SDS011;6492;48.128;8.320;2023-02-15T13:38:41;1.58;;;1.48;;
12846;SDS011;6492;48.128;8.320;2023-02-15T13:42:49;1.40;;;1.30;;
12846;SDS011;6492;48.128;8.320;2023-02-15T13:47:03;1.48;;;1.38;;
12846;SDS011;6492;48.128;8.320;2023-02-15T13:51:19;1.38;;;1.27;;
12846;SDS011;6492;48.128;8.320;2023-02-15T13:55:31;1.48;;;1.38;;
12846;SDS011;6492;48.128;8.320;2023-02-15T13:59:42;2.58;;;1.70;;
12846;SDS011;6492;48.128;8.320;2023-02-15T14:03:59;1.83;;;1.60;;
12846;SDS011;6492;48.128;8.320;2023-02-15T14:08:28;2.45;;;1.70;;
12846;SDS011;6492;48.128;8.320;2023-02-15T14:12:44;2.45;;;1.92;;
12846;SDS011;6492;48.128;8.320;2023-02-15T14:17:00;1.67;;;1.58;;
12846;SDS011;6492;48.128;8.320;2023-02-15T14:21:09;3.45;;;2.50;;
12846;SDS011;6492;48.128;8.320;2023-02-15T14:25:18;3.25;;;2.95;;
12846;SDS011;6492;48.128;8.320;2023-02-15T14:29:28;3.03;;;2.53;;
12846;SDS011;6492;48.128;8.320;2023-02-15T14:33:43;3.08;;;2.78;;
12846;SDS011;6492;48.128;8.320;2023-02-15T14:37:54;3.38;;;2.55;;
12846;SDS011;6492;48.128;8.320;2023-02-15T14:42:04;4.45;;;2.13;;
12846;SDS011;6492;48.128;8.320;2023-02-15T14:46:16;2.63;;;2.30;;
12846;SDS011;6492;48.128;8.320;2023-02-15T14:54:57;3.20;;;2.90;;
12846;SDS011;6492;48.128;8.320;2023-02-15T14:59:14;3.28;;;2.92;;
12846;SDS011;6492;48.128;8.320;2023-02-15T15:03:20;3.15;;;2.70;;
12846;SDS011;6492;48.128;8.320;2023-02-15T15:07:25;4.32;;;3.03;;
12846;SDS011;6492;48.128;8.320;2023-02-15T15:11:40;4.13;;;2.72;;
12846;SDS011;6492;48.128;8.320;2023-02-15T15:15:46;3.60;;;3.25;;
12846;SDS011;6492;48.128;8.320;2023-02-15T15:19:58;5.38;;;3.88;;
12846;SDS011;6492;48.128;8.320;2023-02-15T15:24:01;3.75;;;3.35;;
12846;SDS011;6492;48.128;8.320;2023-02-15T15:28:04;5.00;;;4.50;;
12846;SDS011;6492;48.128;8.320;2023-02-15T15:32:09;4.25;;;3.70;;
12846;SDS011;6492;48.128;8.320;2023-02-15T15:41:03;4.95;;;4.10;;
12846;SDS011;6492;48.128;8.320;2023-02-15T15:45:23;6.28;;;4.93;;
12846;SDS011;6492;48.128;8.320;2023-02-15T15:49:44;3.30;;;3.00;;
12846;SDS011;6492;48.128;8.320;2023-02-15T15:54:02;3.77;;;3.27;;
12846;SDS011;6492;48.128;8.320;2023-02-15T15:58:06;5.73;;;4.80;;
12846;SDS011;6492;48.128;8.320;2023-02-15T16:02:13;5.37;;;4.07;;
12846;SDS011;6492;48.128;8.320;2023-02-15T16:10:46;5.13;;;4.27;;
12846;SDS011;6492;48.128;8.320;2023-02-15T16:14:47;4.87;;;4.23;;
12846;SDS011;6492;48.128;8.320;2023-02-15T16:18:51;4.83;;;3.53;;
12846;SDS011;6492;48.128;8.320;2023-02-15T16:22:56;5.60;;;4.17;;
12846;SDS011;6492;48.128;8.320;2023-02-15T16:31:40;8.43;;;5.80;;
12846;SDS011;6492;48.128;8.320;2023-02-15T16:35:55;27.63;;;16.63;;
12846;SDS011;6492;48.128;8.320;2023-02-15T16:40:27;34.93;;;19.80;;
12846;SDS011;6492;48.128;8.320;2023-02-15T16:44:55;29.87;;;17.77;;
12846;SDS011;6492;48.128;8.320;2023-02-15T16:49:04;27.63;;;15.07;;
12846;SDS011;6492;48.128;8.320;2023-02-15T16:57:21;22.67;;;13.70;;
12846;SDS011;6492;48.128;8.320;2023-02-15T17:01:26;20.07;;;11.83;;
12846;SDS011;6492;48.128;8.320;2023-02-15T17:05:49;20.93;;;13.63;;
12846;SDS011;6492;48.128;8.320;2023-02-15T17:09:52;18.10;;;12.33;;
12846;SDS011;6492;48.128;8.320;2023-02-15T17:18:28;9.00;;;6.77;;
12846;SDS011;6492;48.128;8.320;2023-02-15T17:22:32;10.73;;;8.20;;
12846;SDS011;6492;48.128;8.320;2023-02-15T17:26:35;20.33;;;12.17;;
12846;SDS011;6492;48.128;8.320;2023-02-15T17:30:40;17.53;;;11.10;;
12846;SDS011;6492;48.128;8.320;2023-02-15T17:39:18;27.37;;;15.77;;
12846;SDS011;6492;48.128;8.320;2023-02-15T17:43:22;42.00;;;24.37;;
12846;SDS011;6492;48.128;8.320;2023-02-15T17:47:25;46.53;;;27.90;;
12846;SDS011;6492;48.128;8.320;2023-02-15T17:51:30;43.13;;;24.17;;
12846;SDS011;6492;48.128;8.320;2023-02-15T17:55:34;36.73;;;19.67;;
12846;SDS011;6492;48.128;8.320;2023-02-15T17:59:38;23.07;;;13.90;;
12846;SDS011;6492;48.128;8.320;2023-02-15T18:03:59;23.27;;;14.37;;
12846;SDS011;6492;48.128;8.320;2023-02-15T18:08:19;16.53;;;10.10;;
12846;SDS011;6492;48.128;8.320;2023-02-15T18:12:44;23.23;;;14.03;;
12846;SDS011;6492;48.128;8.320;2023-02-15T18:16:46;21.53;;;12.27;;
12846;SDS011;6492;48.128;8.320;2023-02-15T18:20:49;17.80;;;10.60;;
12846;SDS011;6492;48.128;8.320;2023-02-15T18:24:51;16.20;;;9.70;;
12846;SDS011;6492;48.128;8.320;2023-02-15T18:28:54;19.70;;;11.53;;
12846;SDS011;6492;48.128;8.320;2023-02-15T18:32:56;20.97;;;11.70;;
12846;SDS011;6492;48.128;8.320;2023-02-15T18:37:00;7.77;;;5.90;;
12846;SDS011;6492;48.128;8.320;2023-02-15T18:41:04;6.30;;;3.80;;
12846;SDS011;6492;48.128;8.320;2023-02-15T18:49:14;5.10;;;3.43;;
12846;SDS011;6492;48.128;8.320;2023-02-15T18:53:19;6.23;;;4.17;;
12846;SDS011;6492;48.128;8.320;2023-02-15T18:57:22;10.43;;;5.87;;
12846;SDS011;6492;48.128;8.320;2023-02-15T19:01:27;8.83;;;5.70;;
12846;SDS011;6492;48.128;8.320;2023-02-15T19:05:29;17.50;;;14.10;;
12846;SDS011;6492;48.128;8.320;2023-02-15T19:09:33;9.10;;;5.67;;
12846;SDS011;6492;48.128;8.320;2023-02-15T19:13:35;7.37;;;4.83;;
12846;SDS011;6492;48.128;8.320;2023-02-15T19:17:39;5.33;;;4.00;;
12846;SDS011;6492;48.128;8.320;2023-02-15T19:21:40;6.03;;;3.50;;
12846;SDS011;6492;48.128;8.320;2023-02-15T19:25:44;5.63;;;3.03;;
12846;SDS011;6492;48.128;8.320;2023-02-15T19:29:47;3.20;;;2.87;;
12846;SDS011;6492;48.128;8.320;2023-02-15T19:33:49;4.93;;;3.00;;
12846;SDS011;6492;48.128;8.320;2023-02-15T19:37:52;4.50;;;2.73;;
12846;SDS011;6492;48.128;8.320;2023-02-15T19:41:57;4.07;;;2.77;;
12846;SDS011;6492;48.128;8.320;2023-02-15T19:45:59;4.13;;;2.60;;
12846;SDS011;6492;48.128;8.320;2023-02-15T19:50:04;3.97;;;2.50;;
12846;SDS011;6492;48.128;8.320;2023-02-15T19:54:09;3.23;;;2.20;;
12846;SDS011;6492;48.128;8.320;2023-02-15T19:58:21;4.90;;;2.40;;
12846;SDS011;6492;48.128;8.320;2023-02-15T20:02:23;2.53;;;2.20;;
12846;SDS011;6492;48.128;8.320;2023-02-15T20:06:24;4.50;;;2.40;;
12846;SDS011;6492;48.128;8.320;2023-02-15T20:10:27;3.60;;;2.50;;
12846;SDS011;6492;48.128;8.320;2023-02-15T20:14:32;3.40;;;2.40;;
12846;SDS011;6492;48.128;8.320;2023-02-15T20:18:34;4.13;;;2.80;;
12846;SDS011;6492;48.128;8.320;2023-02-15T20:22:35;3.53;;;2.27;;
12846;SDS011;6492;48.128;8.320;2023-02-15T20:31:07;3.10;;;2.17;;
12846;SDS011;6492;48.128;8.320;2023-02-15T20:53:01;3.07;;;2.53;;
12846;SDS011;6492;48.128;8.320;2023-02-15T20:57:10;2.67;;;2.33;;
12846;SDS011;6492;48.128;8.320;2023-02-15T21:05:24;2.90;;;2.33;;
12846;SDS011;6492;48.128;8.320;2023-02-15T21:09:27;3.73;;;2.80;;
12846;SDS011;6492;48.128;8.320;2023-02-15T21:13:30;4.10;;;2.80;;
12846;SDS011;6492;48.128;8.320;2023-02-15T21:17:33;3.83;;;2.40;;
12846;SDS011;6492;48.128;8.320;2023-02-15T21:21:36;2.93;;;2.37;;
12846;SDS011;6492;48.128;8.320;2023-02-15T21:25:38;3.60;;;2.50;;
12846;SDS011;6492;48.128;8.320;2023-02-15T21:29:40;2.83;;;2.47;;
12846;SDS011;6492;48.128;8.320;2023-02-15T21:33:52;2.43;;;2.20;;
12846;SDS011;6492;48.128;8.320;2023-02-15T21:37:55;2.43;;;1.97;;
12846;SDS011;6492;48.128;8.320;2023-02-15T21:41:57;2.77;;;2.10;;
12846;SDS011;6492;48.128;8.320;2023-02-15T21:46:18;2.93;;;1.80;;
12846;SDS011;6492;48.128;8.320;2023-02-15T21:50:54;2.63;;;2.20;;
12846;SDS011;6492;48.128;8.320;2023-02-15T21:55:15;2.27;;;2.00;;
12846;SDS011;6492;48.128;8.320;2023-02-15T21:59:17;3.57;;;2.10;;
12846;SDS011;6492;48.128;8.320;2023-02-15T22:03:29;2.90;;;2.50;;
12846;SDS011;6492;48.128;8.320;2023-02-15T22:07:32;3.37;;;2.10;;
12846;SDS011;6492;48.128;8.320;2023-02-15T22:11:35;2.97;;;1.97;;
12846;SDS011;6492;48.128;8.320;2023-02-15T22:15:36;4.63;;;2.20;;
12846;SDS011;6492;48.128;8.320;2023-02-15T22:19:38;2.63;;;1.80;;
12846;SDS011;6492;48.128;8.320;2023-02-15T22:23:40;2.87;;;2.10;;
12846;SDS011;6492;48.128;8.320;2023-02-15T22:27:44;2.40;;;1.80;;
12846;SDS011;6492;48.128;8.320;2023-02-15T22:31:47;4.07;;;2.10;;
12846;SDS011;6492;48.128;8.320;2023-02-15T22:35:49;2.60;;;2.10;;
12846;SDS011;6492;48.128;8.320;2023-02-15T22:39:51;2.43;;;2.20;;
12846;SDS011;6492;48.128;8.320;2023-02-15T22:43:54;2.50;;;2.03;;
12846;SDS011;6492;48.128;8.320;2023-02-15T22:47:58;2.10;;;1.90;;
12846;SDS011;6492;48.128;8.320;2023-02-15T22:52:00;2.77;;;2.20;;
12846;SDS011;6492;48.128;8.320;2023-02-15T22:56:03;3.33;;;2.37;;
12846;SDS011;6492;48.128;8.320;2023-02-15T23:00:11;3.10;;;2.30;;
12846;SDS011;6492;48.128;8.320;2023-02-15T23:04:18;3.90;;;3.00;;
12846;SDS011;6492;48.128;8.320;2023-02-15T23:08:21;6.60;;;3.30;;
12846;SDS011;6492;48.128;8.320;2023-02-15T23:12:24;4.83;;;3.30;;
12846;SDS011;6492;48.128;8.320;2023-02-15T23:16:28;4.70;;;3.50;;
12846;SDS011;6492;48.128;8.320;2023-02-15T23:20:31;5.83;;;4.00;;
12846;SDS011;6492;48.128;8.320;2023-02-15T23:24:32;5.43;;;3.80;;
12846;SDS011;6492;48.128;8.320;2023-02-15T23:28:35;4.37;;;3.53;;
12846;SDS011;6492;48.128;8.320;2023-02-15T23:32:39;5.37;;;3.80;;
12846;SDS011;6492;48.128;8.320;2023-02-15T23:36:41;5.33;;;4.10;;
12846;SDS011;6492;48.128;8.320;2023-02-15T23:40:45;6.33;;;4.53;;
12846;SDS011;6492;48.128;8.320;2023-02-15T23:45:10;6.70;;;4.47;;
12846;SDS011;6492;48.128;8.320;2023-02-15T23:49:22;8.07;;;4.87;;
12846;SDS011;6492;48.128;8.320;2023-02-15T23:53:24;7.97;;;4.50;;
12846;SDS011;6492;48.128;8.320;2023-02-15T23:57:26;8.47;;;5.03;;
